Terminal Aerodrome Forecast
Issued by NWS

Home | Current Version | Previous Version | Text Only | Print | Product List | Glossary On
Versions: 1 2 3 4 5 6 7 8 9 10 11 12 13 14 15
000
FTAK31 PAFA 221742 CCA
TAFAOM
TAF COR
PAOM 221742Z 2218/2318 02003KT P6SM SKC
     FM230000 01010KT P6SM VCSH SCT035 BKN050 OVC120
     FM230300 04015KT 6SM -SN BR SCT025 BKN035 OVC050
     FM230600 07020KT 3SM -SN BLSN BKN025 OVC035
     FM231000 08022G32KT 1/2SM -SN BLSN FG SCT005 BKN012 OVC025=

USA.gov is the U.S. government's official web portal to all federal, state and local government web resources and services.